createdAt,value
2022-08-25T00:02:00.137Z,79.83
2022-08-25T00:04:35.424Z,80.44
2022-08-25T00:07:05.566Z,80.11
2022-08-25T00:09:34.923Z,81.37
2022-08-25T00:12:07.914Z,80.67
2022-08-25T00:14:40.209Z,82.05
2022-08-25T00:17:07.923Z,81.93
2022-08-25T00:19:37.911Z,82.18
2022-08-25T00:22:10.302Z,81.70
2022-08-25T00:24:38.175Z,81.80
2022-08-25T00:27:06.431Z,81.49
2022-08-25T00:29:40.107Z,81.17
2022-08-25T00:32:13.388Z,81.36
2022-08-25T00:34:42.293Z,83.11
2022-08-25T00:37:10.228Z,83.05
2022-08-25T00:39:39.384Z,82.64
2022-08-25T00:42:16.155Z,82.54
2022-08-25T00:44:44.070Z,83.49
2022-08-25T00:50:06.984Z,83.12
2022-08-25T00:52:45.117Z,81.80
2022-08-25T00:55:28.471Z,83.79
2022-08-25T00:58:25.664Z,83.14
2022-08-25T01:03:47.941Z,84.09
2022-08-25T01:06:16.040Z,83.76
2022-08-25T01:08:43.966Z,83.49
2022-08-25T01:11:13.129Z,81.73
2022-08-25T01:13:45.512Z,81.99
2022-08-25T01:16:15.833Z,81.95
2022-08-25T01:18:48.591Z,80.62
2022-08-25T01:21:17.973Z,80.32
2022-08-25T01:26:37.952Z,80.90
2022-08-25T01:29:21.009Z,82.64
2022-08-25T01:31:49.943Z,80.43
2022-08-25T01:34:19.490Z,82.58
2022-08-25T01:36:48.423Z,83.91
2022-08-25T01:39:41.764Z,82.15
2022-08-25T01:42:25.780Z,82.70
2022-08-25T01:44:56.064Z,81.95
2022-08-25T01:50:16.022Z,82.63
2022-08-25T02:38:33.280Z,81.76
2022-08-25T02:44:09.171Z,81.88
2022-08-25T02:46:36.658Z,82.02
2022-08-25T02:49:04.960Z,81.50
2022-08-25T02:51:32.219Z,81.32
2022-08-25T03:27:13.797Z,83.78
2022-08-25T03:29:47.111Z,83.84
2022-08-25T03:32:14.099Z,83.05
2022-08-25T03:34:42.344Z,82.94
2022-08-25T03:37:15.188Z,82.53
2022-08-25T03:39:44.363Z,82.17
2022-08-25T03:42:17.788Z,81.79
2022-08-25T03:44:45.971Z,81.92
2022-08-25T03:47:18.953Z,82.70
2022-08-25T03:49:46.343Z,81.85
2022-08-25T03:52:20.446Z,81.92
2022-08-25T03:54:48.082Z,81.82
2022-08-25T03:57:40.216Z,81.91
2022-08-25T04:00:15.142Z,81.97
2022-08-25T04:08:30.913Z,81.86
2022-08-25T04:16:42.081Z,81.78
2022-08-25T04:19:11.168Z,81.92
2022-08-25T04:21:43.909Z,82.24
2022-08-25T04:24:12.829Z,82.01
2022-08-25T04:29:36.147Z,82.05
2022-08-25T04:32:09.322Z,82.11
2022-08-25T04:34:38.719Z,82.16
2022-08-25T04:37:07.907Z,82.31
2022-08-25T04:42:22.094Z,82.57
2022-08-25T04:50:55.299Z,82.83
2022-08-25T05:16:00.263Z,86.01
2022-08-25T05:18:33.060Z,87.86
2022-08-25T05:21:27.164Z,89.04
2022-08-25T05:26:51.820Z,86.03
2022-08-25T05:29:19.835Z,87.95
2022-08-25T05:31:50.594Z,87.97
2022-08-25T05:37:12.338Z,86.38
2022-08-25T05:39:39.919Z,88.79
2022-08-25T05:42:07.940Z,89.87
2022-08-25T05:45:07.051Z,90.04
2022-08-25T05:47:40.504Z,90.52
2022-08-25T05:53:28.068Z,90.33
2022-08-25T05:56:02.068Z,87.78
2022-08-25T05:59:00.922Z,88.88
2022-08-25T06:01:48.060Z,89.01
2022-08-25T06:04:22.966Z,90.72
2022-08-25T06:06:53.425Z,91.34
2022-08-25T06:09:27.519Z,90.49
2022-08-25T06:11:55.900Z,90.64
2022-08-25T06:14:29.703Z,90.10
2022-08-25T06:16:57.927Z,89.71
2022-08-25T06:19:30.992Z,90.46
2022-08-25T06:22:05.886Z,91.16
2022-08-25T06:24:34.202Z,88.06
2022-08-25T06:27:02.030Z,89.58
2022-08-25T06:29:40.204Z,89.05
2022-08-25T06:32:10.006Z,89.24
2022-08-25T06:34:38.060Z,88.46
2022-08-25T06:37:05.897Z,88.93
2022-08-25T06:39:44.944Z,87.31
2022-08-25T06:42:16.913Z,87.24
2022-08-25T06:53:49.380Z,87.70
2022-08-25T06:56:21.123Z,89.35
2022-08-25T06:58:54.581Z,88.51
2022-08-25T07:01:27.306Z,88.32
2022-08-25T07:07:45.927Z,89.12
2022-08-25T07:10:30.719Z,89.31
2022-08-25T07:13:05.342Z,87.87
2022-08-25T07:15:40.111Z,87.31
2022-08-25T07:18:13.366Z,87.12
2022-08-25T07:20:44.335Z,87.68
2022-08-25T07:23:14.683Z,88.06
2022-08-25T07:25:50.937Z,88.63
2022-08-25T07:28:22.264Z,87.80
2022-08-25T07:30:52.181Z,89.25
2022-08-25T07:33:20.165Z,87.84
2022-08-25T07:35:55.082Z,87.80
2022-08-25T07:38:24.558Z,85.61
2022-08-25T07:45:27.185Z,83.76
2022-08-25T07:48:15.274Z,85.64
2022-08-25T07:50:54.717Z,86.53
2022-08-25T07:53:33.166Z,85.16
2022-08-25T07:56:10.115Z,87.20
2022-08-25T07:58:38.998Z,85.30
2022-08-25T08:01:23.736Z,87.80
2022-08-25T08:07:05.312Z,83.91
2022-08-25T08:09:46.770Z,83.69
2022-08-25T08:21:41.373Z,83.20
2022-08-25T08:25:37.231Z,84.62
2022-08-25T08:37:40.601Z,85.17
2022-08-25T08:41:10.202Z,86.00
2022-08-25T08:49:27.997Z,84.16
2022-08-25T08:52:16.972Z,83.75
2022-08-25T08:58:00.159Z,84.70
2022-08-25T09:04:24.534Z,83.04
2022-08-25T09:18:54.342Z,78.49
2022-08-25T09:21:37.502Z,78.60
2022-08-25T09:35:59.181Z,76.87
2022-08-25T09:41:51.197Z,75.30
2022-08-25T09:44:45.980Z,74.75
2022-08-25T09:47:28.388Z,75.07
2022-08-25T09:50:07.184Z,74.88
2022-08-25T09:52:41.699Z,73.32
2022-08-25T10:01:37.767Z,68.95
2022-08-25T10:06:55.581Z,70.65
2022-08-25T10:15:36.115Z,66.96
2022-08-25T10:18:26.221Z,65.69
2022-08-25T10:21:12.290Z,64.31
2022-08-25T10:23:50.029Z,66.72
2022-08-25T10:26:39.464Z,66.56
2022-08-25T10:29:33.962Z,66.45
2022-08-25T10:32:54.372Z,65.93
2022-08-25T10:35:31.293Z,66.62
2022-08-25T10:42:11.729Z,65.59
2022-08-25T10:45:46.439Z,64.57
2022-08-25T10:49:07.768Z,66.01
2022-08-25T10:52:04.762Z,64.22
2022-08-25T10:55:12.479Z,62.65
2022-08-25T10:58:03.618Z,62.94
2022-08-25T11:00:50.119Z,63.05
2022-08-25T11:03:35.963Z,63.98
2022-08-25T11:09:13.152Z,62.60
2022-08-25T11:11:59.903Z,62.52
2022-08-25T11:14:38.183Z,62.84
2022-08-25T11:29:46.225Z,62.82
2022-08-25T11:35:39.884Z,63.19
2022-08-25T11:38:43.612Z,63.42
2022-08-25T11:44:58.476Z,62.88
2022-08-25T11:48:06.719Z,61.50
2022-08-25T11:51:07.986Z,61.99
2022-08-25T11:54:05.553Z,61.52
2022-08-25T11:56:40.024Z,60.40
2022-08-25T11:59:15.483Z,60.69
2022-08-25T12:01:43.810Z,59.83
2022-08-25T12:04:27.242Z,58.19
2022-08-25T12:07:10.739Z,59.21
2022-08-25T12:09:53.796Z,60.30
2022-08-25T12:12:41.819Z,58.03
2022-08-25T12:15:31.300Z,59.42
2022-08-25T12:18:22.822Z,58.33
2022-08-25T12:20:53.097Z,59.42
2022-08-25T12:23:32.551Z,59.34
2022-08-25T12:26:11.085Z,59.24
2022-08-25T12:28:51.895Z,58.69
2022-08-25T12:31:59.254Z,58.73
2022-08-25T12:37:32.231Z,58.01
2022-08-25T12:40:02.873Z,58.06
2022-08-25T12:42:47.970Z,57.92
2022-08-25T12:45:55.167Z,57.20
2022-08-25T12:48:33.096Z,58.25
2022-08-25T12:51:04.168Z,57.60
2022-08-25T12:53:40.615Z,57.05
2022-08-25T12:56:22.180Z,56.86
2022-08-25T12:59:13.253Z,56.93
2022-08-25T13:02:03.116Z,57.40
2022-08-25T13:04:57.793Z,57.76
2022-08-25T13:07:49.384Z,57.40
2022-08-25T13:10:24.328Z,58.45
2022-08-25T13:13:21.330Z,58.15
2022-08-25T13:16:02.241Z,57.28
2022-08-25T13:18:37.778Z,56.01
2022-08-25T13:21:18.704Z,55.91
2022-08-25T13:23:53.899Z,55.44
2022-08-25T13:26:33.714Z,56.00
2022-08-25T13:29:29.384Z,54.67
2022-08-25T13:32:12.882Z,56.23
2022-08-25T13:37:31.424Z,54.96
2022-08-25T13:40:26.111Z,55.73
2022-08-25T13:43:27.453Z,55.89
2022-08-25T13:46:22.332Z,56.09
2022-08-25T13:48:50.218Z,56.58
2022-08-25T13:51:31.465Z,56.77
2022-08-25T13:54:06.547Z,56.73
2022-08-25T13:56:41.578Z,56.05
2022-08-25T13:59:29.426Z,54.74
2022-08-25T14:04:57.089Z,54.15
2022-08-25T14:07:35.402Z,54.72
2022-08-25T14:10:15.519Z,54.72
2022-08-25T14:12:49.679Z,53.56
2022-08-25T14:15:22.896Z,53.47
2022-08-25T14:18:06.883Z,54.75
2022-08-25T14:21:02.672Z,55.05
2022-08-25T14:23:56.999Z,53.88
2022-08-25T14:34:34.842Z,54.04
2022-08-25T14:37:02.062Z,54.07
2022-08-25T14:39:30.060Z,54.43
2022-08-25T14:42:02.923Z,55.60
2022-08-25T14:44:30.042Z,55.74
2022-08-25T14:46:59.451Z,53.92
2022-08-25T14:49:36.122Z,54.26
2022-08-25T14:52:27.012Z,54.79
2022-08-25T14:54:53.945Z,54.10
2022-08-25T14:57:45.874Z,54.21
2022-08-25T15:00:14.255Z,54.17
2022-08-25T15:02:47.046Z,54.15
2022-08-25T15:05:29.706Z,54.95
2022-08-25T15:58:12.513Z,54.88
2022-08-25T16:00:56.015Z,55.87
2022-08-25T16:03:35.117Z,55.11
2022-08-25T16:31:28.405Z,56.59
2022-08-25T16:33:58.326Z,55.69
2022-08-25T16:36:27.023Z,56.14
2022-08-25T16:38:57.628Z,56.05
2022-08-25T16:41:34.309Z,56.60
2022-08-25T16:44:11.277Z,56.46
2022-08-25T16:46:41.991Z,56.76
2022-08-25T16:49:13.788Z,56.15
2022-08-25T16:51:43.873Z,56.75
2022-08-25T16:54:31.065Z,56.16
2022-08-25T16:57:04.008Z,56.38
2022-08-25T16:59:55.830Z,56.86
2022-08-25T17:02:23.843Z,57.46
2022-08-25T17:04:51.902Z,57.89
2022-08-25T17:07:23.925Z,56.76
2022-08-25T17:09:53.086Z,57.00
2022-08-25T17:15:13.907Z,57.65
2022-08-25T17:21:04.515Z,57.35
2022-08-25T17:26:27.853Z,57.51
2022-08-25T17:29:05.870Z,57.68
2022-08-25T17:35:15.107Z,57.87
2022-08-25T17:37:50.431Z,57.97
2022-08-25T17:40:18.475Z,58.07
2022-08-25T17:42:45.849Z,58.37
2022-08-25T17:45:14.054Z,58.28
2022-08-25T17:47:41.878Z,59.08
2022-08-25T17:50:09.999Z,59.52
2022-08-25T17:52:42.950Z,60.01
2022-08-25T17:55:11.991Z,60.31
2022-08-25T17:57:39.932Z,59.65
2022-08-25T18:00:13.617Z,59.56
2022-08-25T18:02:43.380Z,59.72
2022-08-25T18:05:12.941Z,60.67
2022-08-25T18:07:45.293Z,60.81
2022-08-25T18:10:14.029Z,61.74
2022-08-25T18:12:47.308Z,61.66
2022-08-25T18:15:16.150Z,62.68
2022-08-25T18:17:43.849Z,63.82
2022-08-25T18:20:14.658Z,64.57
2022-08-25T18:22:47.963Z,65.03
2022-08-25T18:25:16.852Z,65.27
2022-08-25T18:28:09.940Z,65.89
2022-08-25T18:30:38.934Z,66.55
2022-08-25T18:33:11.280Z,67.07
2022-08-25T18:35:40.093Z,66.90
2022-08-25T18:38:32.210Z,67.40
2022-08-25T18:41:05.520Z,67.34
2022-08-25T18:43:35.077Z,67.72
2022-08-25T18:46:04.682Z,68.75
2022-08-25T18:48:32.283Z,68.82
2022-08-25T18:51:01.354Z,69.22
2022-08-25T18:53:49.813Z,68.97
2022-08-25T18:56:23.784Z,68.99
2022-08-25T18:58:52.584Z,69.35
2022-08-25T19:01:46.555Z,69.66
2022-08-25T19:04:14.985Z,69.84
2022-08-25T19:06:46.670Z,70.26
2022-08-25T19:09:15.192Z,70.20
2022-08-25T19:11:58.840Z,70.10
2022-08-25T19:14:27.038Z,70.43
2022-08-25T19:16:55.994Z,70.65
2022-08-25T19:19:35.928Z,70.74
2022-08-25T19:22:41.272Z,70.83
2022-08-25T19:25:14.494Z,71.34
2022-08-25T19:27:50.890Z,71.85
2022-08-25T19:30:26.837Z,71.20
2022-08-25T19:33:05.576Z,71.40
2022-08-25T19:35:50.054Z,71.79
2022-08-25T19:38:35.613Z,71.90
2022-08-25T19:41:10.427Z,71.79
2022-08-25T19:43:56.729Z,71.86
2022-08-25T19:46:42.944Z,72.25
2022-08-25T19:52:26.627Z,72.53
